createdAt,value
2023-06-06T00:00:45.045Z,488.80
2023-06-06T00:01:45.040Z,481.70
2023-06-06T00:02:45.099Z,486.10
2023-06-06T00:03:45.181Z,510.30
2023-06-06T00:04:45.035Z,518.00
2023-06-06T00:05:44.994Z,480.00
2023-06-06T00:06:44.993Z,508.00
2023-06-06T00:07:44.956Z,563.60
2023-06-06T00:08:44.993Z,529.50
2023-06-06T00:09:44.934Z,496.00
2023-06-06T00:10:45.001Z,511.00
2023-06-06T00:11:44.922Z,508.10
2023-06-06T00:12:45.388Z,504.50
2023-06-06T00:13:44.933Z,501.10
2023-06-06T00:14:44.938Z,503.10
2023-06-06T00:15:44.862Z,511.80
2023-06-06T00:16:44.901Z,516.40
2023-06-06T00:17:44.905Z,530.90
2023-06-06T00:18:44.857Z,519.60
2023-06-06T00:19:44.833Z,510.20
2023-06-06T00:20:44.853Z,529.40
2023-06-06T00:21:44.801Z,521.10
2023-06-06T00:22:44.848Z,572.80
2023-06-06T00:23:44.803Z,573.70
2023-06-06T00:24:44.779Z,578.10
2023-06-06T00:25:44.772Z,575.90
2023-06-06T00:26:44.786Z,564.20
2023-06-06T00:27:44.783Z,564.10
2023-06-06T00:28:44.732Z,561.70
2023-06-06T00:29:44.711Z,556.20
2023-06-06T00:30:44.717Z,524.10
2023-06-06T00:31:44.816Z,561.30
2023-06-06T00:32:44.728Z,540.60
2023-06-06T00:33:44.665Z,550.50
2023-06-06T00:34:44.663Z,535.80
2023-06-06T00:35:44.649Z,562.40
2023-06-06T00:36:44.673Z,508.30
2023-06-06T00:37:44.624Z,569.30
2023-06-06T00:38:44.610Z,627.00
2023-06-06T00:39:44.585Z,557.50
2023-06-06T00:40:44.638Z,448.70
2023-06-06T00:41:44.614Z,465.20
2023-06-06T00:42:44.574Z,489.40
2023-06-06T00:43:44.561Z,593.90
2023-06-06T00:44:44.564Z,507.60
2023-06-06T00:45:44.596Z,493.20
2023-06-06T00:46:44.525Z,477.90
2023-06-06T00:47:44.546Z,506.50
2023-06-06T00:48:44.505Z,505.40
2023-06-06T00:49:44.525Z,537.50
2023-06-06T00:50:44.524Z,497.30
2023-06-06T00:51:44.465Z,505.40
2023-06-06T00:52:44.453Z,532.10
2023-06-06T00:53:44.445Z,528.10
2023-06-06T00:54:44.424Z,524.50
2023-06-06T00:55:44.477Z,531.30
2023-06-06T00:56:44.407Z,516.90
2023-06-06T00:57:44.414Z,538.90
2023-06-06T00:58:44.349Z,516.60
2023-06-06T00:59:44.360Z,519.40
2023-06-06T01:00:44.383Z,523.60
2023-06-06T01:01:44.390Z,509.70
2023-06-06T01:02:44.357Z,512.00
2023-06-06T01:03:44.349Z,540.60
2023-06-06T01:04:44.330Z,505.00
2023-06-06T01:05:44.364Z,540.90
2023-06-06T01:06:44.257Z,553.60
2023-06-06T01:07:44.263Z,512.00
2023-06-06T01:08:44.245Z,529.40
2023-06-06T01:09:44.287Z,542.60
2023-06-06T01:10:44.227Z,508.00
2023-06-06T01:11:44.224Z,533.80
2023-06-06T01:12:44.205Z,530.60
2023-06-06T01:13:44.202Z,521.60
2023-06-06T01:14:44.196Z,538.50
2023-06-06T01:15:44.204Z,542.70
2023-06-06T01:16:44.152Z,547.80
2023-06-06T01:17:44.188Z,520.60
2023-06-06T01:18:44.183Z,586.60
2023-06-06T01:19:44.167Z,543.90
2023-06-06T01:20:44.101Z,558.90
2023-06-06T01:21:44.092Z,610.80
2023-06-06T01:22:44.092Z,609.20
2023-06-06T01:23:44.155Z,603.20
2023-06-06T01:24:44.050Z,602.90
2023-06-06T01:25:44.053Z,591.10
2023-06-06T01:26:44.049Z,579.20
2023-06-06T01:27:44.061Z,584.60
2023-06-06T01:28:44.048Z,552.80
2023-06-06T01:29:44.025Z,560.00
2023-06-06T01:30:44.008Z,564.40
2023-06-06T01:31:44.119Z,632.80
2023-06-06T01:32:44.042Z,634.90
2023-06-06T01:33:43.952Z,647.00
2023-06-06T01:34:43.944Z,641.50
2023-06-06T01:35:43.943Z,658.00
2023-06-06T01:36:43.921Z,672.50
2023-06-06T01:37:43.945Z,696.50
2023-06-06T01:38:43.924Z,701.80
2023-06-06T01:39:43.890Z,714.90
2023-06-06T01:40:43.875Z,690.10
2023-06-06T01:41:43.871Z,693.30
2023-06-06T01:42:43.901Z,684.20
2023-06-06T01:43:43.855Z,693.70
2023-06-06T01:44:43.854Z,708.60
2023-06-06T01:45:43.817Z,701.50
2023-06-06T01:46:43.893Z,720.60
2023-06-06T01:47:43.873Z,690.80
2023-06-06T01:48:43.791Z,722.10
2023-06-06T01:49:43.788Z,705.60
2023-06-06T01:50:43.753Z,679.00
2023-06-06T01:51:43.822Z,674.30
2023-06-06T01:52:43.757Z,655.60
2023-06-06T01:53:43.733Z,671.30
2023-06-06T01:54:43.720Z,696.20
2023-06-06T01:55:43.704Z,665.00
2023-06-06T01:56:43.759Z,696.10
2023-06-06T01:57:43.703Z,731.10
2023-06-06T01:58:43.682Z,724.70
2023-06-06T01:59:43.669Z,730.70
2023-06-06T02:00:43.739Z,740.10
2023-06-06T02:01:43.682Z,726.20
2023-06-06T02:02:43.775Z,704.90
2023-06-06T02:03:43.720Z,705.10
2023-06-06T02:04:43.602Z,698.00
2023-06-06T02:05:43.647Z,660.50
2023-06-06T02:06:43.598Z,681.30
2023-06-06T02:07:43.571Z,662.70
2023-06-06T02:08:43.563Z,674.00
2023-06-06T02:09:43.551Z,683.90
2023-06-06T02:10:43.575Z,680.00
2023-06-06T02:11:43.543Z,703.40
2023-06-06T02:12:43.513Z,707.50
2023-06-06T02:13:43.499Z,706.00
2023-06-06T02:14:43.500Z,696.50
2023-06-06T02:15:43.511Z,679.80
2023-06-06T02:16:43.481Z,685.90
2023-06-06T02:17:43.478Z,606.40
2023-06-06T02:18:43.451Z,595.30
2023-06-06T02:19:43.476Z,616.20
2023-06-06T02:20:43.458Z,645.60
2023-06-06T02:21:43.412Z,651.20
2023-06-06T02:22:43.392Z,646.50
2023-06-06T02:23:43.450Z,654.90
2023-06-06T02:24:43.406Z,652.40
2023-06-06T02:25:43.397Z,649.10
2023-06-06T02:26:43.386Z,642.60
2023-06-06T02:27:43.330Z,669.80
2023-06-06T02:28:43.321Z,655.30
2023-06-06T02:29:43.350Z,628.30
2023-06-06T02:30:43.355Z,591.60
2023-06-06T02:31:43.290Z,585.40
2023-06-06T02:32:43.313Z,644.10
2023-06-06T02:33:43.309Z,601.10
2023-06-06T02:34:43.315Z,603.10
2023-06-06T02:35:43.254Z,621.50
2023-06-06T02:36:43.229Z,643.60
2023-06-06T02:37:43.269Z,658.40
2023-06-06T02:38:43.245Z,669.30
2023-06-06T02:39:43.192Z,679.20
2023-06-06T02:40:43.172Z,687.80
2023-06-06T02:41:43.173Z,685.60
2023-06-06T02:42:43.159Z,684.10
2023-06-06T02:43:43.192Z,685.60
2023-06-06T02:44:43.144Z,691.00
2023-06-06T02:45:43.133Z,677.30
2023-06-06T02:46:43.170Z,681.90
2023-06-06T02:47:43.150Z,674.10
2023-06-06T02:48:43.116Z,677.40
2023-06-06T02:49:43.089Z,640.70
2023-06-06T02:50:43.081Z,642.20
2023-06-06T02:51:43.058Z,647.50
2023-06-06T02:52:43.097Z,655.60
2023-06-06T02:53:43.051Z,639.30
2023-06-06T02:54:43.031Z,639.30
2023-06-06T02:55:43.017Z,646.20
2023-06-06T02:56:42.992Z,625.30
2023-06-06T02:57:43.033Z,633.00
2023-06-06T02:58:42.968Z,644.40
2023-06-06T02:59:42.983Z,639.50
2023-06-06T03:00:42.961Z,629.60
2023-06-06T03:01:43.025Z,622.60
2023-06-06T03:02:43.027Z,682.70
2023-06-06T03:03:42.965Z,610.90
2023-06-06T03:04:42.907Z,575.70
2023-06-06T03:05:42.905Z,606.70
2023-06-06T03:06:42.932Z,621.70
2023-06-06T03:07:42.884Z,624.70
2023-06-06T03:08:42.860Z,569.50
2023-06-06T03:09:42.856Z,574.60
2023-06-06T03:10:42.866Z,574.20
2023-06-06T03:11:42.878Z,554.40
2023-06-06T03:12:42.829Z,563.70
2023-06-06T03:13:42.818Z,563.80
2023-06-06T03:14:55.681Z,541.50
2023-06-06T03:15:43.794Z,552.20
2023-06-06T03:16:42.944Z,555.70
2023-06-06T03:17:42.802Z,559.60
2023-06-06T03:18:42.747Z,548.20
2023-06-06T03:19:42.748Z,615.10
2023-06-06T03:20:42.782Z,622.60
2023-06-06T03:21:42.762Z,576.20
2023-06-06T03:22:42.705Z,613.00
2023-06-06T03:23:42.887Z,625.70
2023-06-06T03:24:42.691Z,605.10
2023-06-06T03:25:42.717Z,596.50
2023-06-06T03:26:42.672Z,650.90
2023-06-06T03:27:42.661Z,639.00
2023-06-06T03:28:42.643Z,578.10
2023-06-06T03:29:42.663Z,581.60
2023-06-06T03:30:42.679Z,617.60
2023-06-06T03:31:42.648Z,597.70
2023-06-06T03:32:42.595Z,621.60
2023-06-06T03:33:42.580Z,626.50
2023-06-06T03:34:42.563Z,600.60
2023-06-06T03:35:42.629Z,580.00
2023-06-06T03:36:42.562Z,592.80
2023-06-06T03:37:42.549Z,564.60
2023-06-06T03:38:42.527Z,574.80
2023-06-06T03:39:42.565Z,594.70
2023-06-06T03:40:42.554Z,604.50
2023-06-06T03:41:42.491Z,598.70
2023-06-06T03:42:42.483Z,595.30
2023-06-06T03:43:42.463Z,607.40
2023-06-06T03:44:42.480Z,621.10
2023-06-06T03:45:42.524Z,587.00
2023-06-06T03:46:42.423Z,606.40
2023-06-06T03:47:42.490Z,638.20
2023-06-06T03:48:42.402Z,631.90
2023-06-06T03:49:42.432Z,633.10
2023-06-06T03:50:42.384Z,597.90
2023-06-06T03:51:42.423Z,660.50
2023-06-06T03:52:42.374Z,686.30
2023-06-06T03:53:42.392Z,614.30
2023-06-06T03:54:42.412Z,658.90
2023-06-06T03:55:42.332Z,630.10
2023-06-06T03:56:42.318Z,630.50
2023-06-06T03:57:42.306Z,615.70
2023-06-06T03:58:42.317Z,600.40
2023-06-06T03:59:42.278Z,606.50
2023-06-06T04:00:42.263Z,619.10
2023-06-06T04:01:42.665Z,631.50
2023-06-06T04:02:42.325Z,633.60
2023-06-06T04:03:42.368Z,598.00
2023-06-06T04:04:42.301Z,612.60
2023-06-06T04:05:42.217Z,652.50
2023-06-06T04:06:42.186Z,680.50
2023-06-06T04:07:42.227Z,683.20
2023-06-06T04:08:42.213Z,709.20
2023-06-06T04:09:42.197Z,738.70
2023-06-06T04:10:42.155Z,759.10
2023-06-06T04:11:42.160Z,751.40
2023-06-06T04:12:42.163Z,785.80
2023-06-06T04:13:42.116Z,808.40
2023-06-06T04:14:42.109Z,768.30
2023-06-06T04:15:42.144Z,727.70
2023-06-06T04:16:42.095Z,742.20
2023-06-06T04:17:42.113Z,760.80
2023-06-06T04:18:42.058Z,644.10
2023-06-06T04:19:42.056Z,631.10
2023-06-06T04:20:42.023Z,638.20
2023-06-06T04:21:42.072Z,601.10
2023-06-06T04:22:42.051Z,635.40
2023-06-06T04:23:42.080Z,621.40
2023-06-06T04:24:41.981Z,567.30
2023-06-06T04:25:41.998Z,531.60
2023-06-06T04:26:42.151Z,543.20
2023-06-06T04:27:42.125Z,590.30
2023-06-06T04:28:41.953Z,613.20
2023-06-06T04:29:41.943Z,682.80
2023-06-06T04:30:41.931Z,671.00
2023-06-06T04:31:42.110Z,634.10
2023-06-06T04:32:41.902Z,640.20
2023-06-06T04:33:41.874Z,633.30
2023-06-06T04:34:41.876Z,592.50
2023-06-06T04:35:41.915Z,558.00
2023-06-06T04:36:41.890Z,553.40
2023-06-06T04:37:41.866Z,544.00
2023-06-06T04:38:41.846Z,589.90
2023-06-06T04:39:41.808Z,598.80
2023-06-06T04:41:00.540Z,593.90
2023-06-06T04:42:41.782Z,714.50
2023-06-06T04:43:41.776Z,690.40
2023-06-06T04:44:41.775Z,707.40
2023-06-06T04:45:41.789Z,699.10
2023-06-06T04:46:41.766Z,718.10
2023-06-06T04:47:42.016Z,718.90
2023-06-06T04:48:41.717Z,699.00
2023-06-06T04:49:41.713Z,653.40
2023-06-06T04:50:41.726Z,646.60
2023-06-06T04:51:41.702Z,626.40
2023-06-06T04:52:41.688Z,596.10
2023-06-06T04:53:41.654Z,452.60
2023-06-06T04:54:41.752Z,523.80
2023-06-06T04:55:41.696Z,401.60
2023-06-06T04:56:41.636Z,439.10
2023-06-06T04:57:41.615Z,433.30
2023-06-06T04:58:41.615Z,464.20
2023-06-06T04:59:41.660Z,404.70
2023-06-06T05:00:41.615Z,421.30
2023-06-06T05:01:41.593Z,430.00
2023-06-06T05:02:41.600Z,428.90
2023-06-06T05:03:41.631Z,427.90
2023-06-06T05:04:41.589Z,450.90
2023-06-06T05:05:41.538Z,532.30
2023-06-06T05:06:41.516Z,477.90
2023-06-06T05:07:41.521Z,485.50
2023-06-06T05:08:41.530Z,452.70
2023-06-06T05:09:41.548Z,469.50
2023-06-06T05:10:41.479Z,454.80
2023-06-06T05:11:41.458Z,513.80
2023-06-06T05:12:41.460Z,497.80
2023-06-06T05:13:41.496Z,503.40
2023-06-06T05:14:41.451Z,478.60
2023-06-06T05:15:41.412Z,471.20
2023-06-06T05:16:41.408Z,450.20
2023-06-06T05:17:41.413Z,497.00
2023-06-06T05:18:41.406Z,474.70
2023-06-06T05:19:41.390Z,511.00
2023-06-06T05:20:41.360Z,444.30
2023-06-06T05:21:41.356Z,537.30
2023-06-06T05:22:41.390Z,464.30
2023-06-06T05:23:41.418Z,419.40
2023-06-06T05:24:41.329Z,447.10
2023-06-06T05:25:41.313Z,408.20
2023-06-06T05:26:41.301Z,375.80
2023-06-06T05:27:41.342Z,427.90
2023-06-06T05:28:41.275Z,351.00
2023-06-06T05:29:41.271Z,304.60
2023-06-06T05:30:41.253Z,314.40
2023-06-06T05:31:41.340Z,295.70
2023-06-06T05:32:41.321Z,327.20
2023-06-06T05:33:41.232Z,294.40
2023-06-06T05:34:41.211Z,336.90
2023-06-06T05:35:41.242Z,316.40
2023-06-06T05:36:41.201Z,285.40
2023-06-06T05:37:41.178Z,264.90
2023-06-06T05:38:41.190Z,333.50
2023-06-06T05:39:41.129Z,341.70
2023-06-06T05:40:41.154Z,436.10
2023-06-06T05:41:41.135Z,464.40
2023-06-06T05:42:41.134Z,440.90
2023-06-06T05:43:41.080Z,438.30
2023-06-06T05:44:41.098Z,477.20
2023-06-06T05:45:42.847Z,440.90
2023-06-06T05:46:41.163Z,485.20
2023-06-06T05:47:41.073Z,476.40
2023-06-06T05:48:41.049Z,443.70
2023-06-06T05:49:41.055Z,457.50
2023-06-06T05:50:41.087Z,464.00
2023-06-06T05:51:40.991Z,443.60
2023-06-06T05:52:41.005Z,402.60
2023-06-06T05:53:40.979Z,437.40
2023-06-06T05:54:49.653Z,472.70
2023-06-06T05:55:42.007Z,443.10
2023-06-06T05:56:40.934Z,437.30
2023-06-06T05:57:40.982Z,349.60
2023-06-06T05:58:41.773Z,396.50
2023-06-06T05:59:40.949Z,346.50
2023-06-06T06:00:40.965Z,365.50
2023-06-06T06:01:41.453Z,351.20
2023-06-06T06:02:40.993Z,384.50
2023-06-06T06:03:41.256Z,396.20
2023-06-06T06:04:40.931Z,363.80
2023-06-06T06:05:40.889Z,353.00
2023-06-06T06:06:40.864Z,297.00
2023-06-06T06:07:40.829Z,293.40
2023-06-06T06:08:40.824Z,286.70
2023-06-06T06:09:40.851Z,294.50
2023-06-06T06:10:40.873Z,357.20
2023-06-06T06:11:40.790Z,371.70
2023-06-06T06:12:40.764Z,388.10
2023-06-06T06:13:40.746Z,419.80
2023-06-06T06:14:40.790Z,476.50
2023-06-06T06:15:40.746Z,389.70
2023-06-06T06:16:40.806Z,412.50
2023-06-06T06:17:40.752Z,408.10
2023-06-06T06:18:40.696Z,455.20
2023-06-06T06:19:40.714Z,393.60
2023-06-06T06:20:40.693Z,390.20
2023-06-06T06:21:40.677Z,535.10
2023-06-06T06:22:40.653Z,501.20
2023-06-06T06:23:40.735Z,413.70
2023-06-06T06:24:40.689Z,333.10
2023-06-06T06:25:40.673Z,345.00
2023-06-06T06:26:40.617Z,375.80
2023-06-06T06:27:40.597Z,350.20
2023-06-06T06:28:40.632Z,381.90
2023-06-06T06:29:40.586Z,429.70
2023-06-06T06:30:40.560Z,336.40
2023-06-06T06:31:40.599Z,360.30
2023-06-06T06:32:41.561Z,320.90
2023-06-06T06:33:40.576Z,334.00
2023-06-06T06:34:40.558Z,315.60
2023-06-06T06:35:40.488Z,345.70
2023-06-06T06:36:40.508Z,310.10
2023-06-06T06:37:40.876Z,275.20
2023-06-06T06:38:40.501Z,348.30
2023-06-06T06:39:40.475Z,387.60
2023-06-06T06:40:40.433Z,448.90
2023-06-06T06:41:40.425Z,529.60
2023-06-06T06:42:40.443Z,555.30
2023-06-06T06:43:40.400Z,484.80
2023-06-06T06:44:42.228Z,504.80
2023-06-06T06:45:40.425Z,587.80
2023-06-06T06:46:40.381Z,643.50
2023-06-06T06:47:40.451Z,602.70
2023-06-06T06:48:40.386Z,571.60
2023-06-06T06:49:40.335Z,603.90
2023-06-06T06:50:40.339Z,682.40
2023-06-06T06:51:40.352Z,668.20
2023-06-06T06:52:40.357Z,673.80
2023-06-06T06:53:40.300Z,614.20
2023-06-06T06:54:40.287Z,539.30
2023-06-06T06:55:40.277Z,505.40
2023-06-06T06:56:40.347Z,485.00
2023-06-06T06:57:40.259Z,506.50
2023-06-06T06:58:40.248Z,529.00
2023-06-06T06:59:40.225Z,547.80
2023-06-06T07:00:40.230Z,468.90
2023-06-06T07:01:40.332Z,478.50
2023-06-06T07:02:40.250Z,536.60
2023-06-06T07:03:40.211Z,552.90
2023-06-06T07:04:40.180Z,569.90
2023-06-06T07:05:40.261Z,584.80
2023-06-06T07:06:40.192Z,580.30
2023-06-06T07:07:40.153Z,575.20
2023-06-06T07:08:40.132Z,600.50
2023-06-06T07:09:40.120Z,567.00
2023-06-06T07:10:40.134Z,578.00
2023-06-06T07:11:40.081Z,621.80
2023-06-06T07:12:40.740Z,595.10
2023-06-06T07:13:40.071Z,530.40
2023-06-06T07:14:40.056Z,523.90
2023-06-06T07:15:40.094Z,526.20
2023-06-06T07:16:40.039Z,541.80
2023-06-06T07:17:40.098Z,494.50
2023-06-06T07:18:40.029Z,585.30
2023-06-06T07:19:40.051Z,636.30
2023-06-06T07:20:40.040Z,614.60
2023-06-06T07:21:39.982Z,571.90
2023-06-06T07:22:39.969Z,631.40
2023-06-06T07:23:40.034Z,567.10
2023-06-06T07:24:40.004Z,544.00
2023-06-06T07:25:39.967Z,692.10
2023-06-06T07:26:39.932Z,719.50
2023-06-06T07:27:39.932Z,691.40
2023-06-06T07:28:42.960Z,649.00
2023-06-06T07:29:39.906Z,689.50
2023-06-06T07:30:39.870Z,584.90
2023-06-06T07:31:39.883Z,588.30
2023-06-06T07:32:39.939Z,588.60
2023-06-06T07:33:39.872Z,536.30
2023-06-06T07:34:39.881Z,485.20
2023-06-06T07:35:39.819Z,501.10
2023-06-06T07:36:39.811Z,492.20
2023-06-06T07:37:39.833Z,460.00
2023-06-06T07:38:39.832Z,442.30
2023-06-06T07:39:39.769Z,424.40
2023-06-06T07:40:39.744Z,484.80
2023-06-06T07:41:39.731Z,517.30
2023-06-06T07:42:39.750Z,505.20
2023-06-06T07:43:39.760Z,564.10
2023-06-06T07:44:39.727Z,543.10
2023-06-06T07:45:39.713Z,581.80
2023-06-06T07:46:39.773Z,580.70
2023-06-06T07:47:39.721Z,577.30
2023-06-06T07:48:39.717Z,568.00
2023-06-06T07:49:39.680Z,557.80
2023-06-06T07:50:39.674Z,578.70
2023-06-06T07:51:39.630Z,543.90
2023-06-06T07:52:39.691Z,590.80
2023-06-06T07:53:39.668Z,548.20
2023-06-06T07:54:39.591Z,580.00
2023-06-06T07:55:39.600Z,575.50
2023-06-06T07:56:39.583Z,574.40
2023-06-06T07:57:39.622Z,574.60
2023-06-06T07:58:39.574Z,620.60
2023-06-06T07:59:39.582Z,593.10
2023-06-06T08:00:39.540Z,600.60
2023-06-06T08:01:39.638Z,567.00
2023-06-06T08:02:39.679Z,614.40
2023-06-06T08:03:39.498Z,551.00
2023-06-06T08:04:39.501Z,548.70
2023-06-06T08:05:39.538Z,570.00
2023-06-06T08:06:39.534Z,517.30
2023-06-06T08:07:39.589Z,615.70
2023-06-06T08:08:39.444Z,558.90
2023-06-06T08:09:39.509Z,442.90
2023-06-06T08:10:39.445Z,448.30
2023-06-06T08:11:39.457Z,467.20
2023-06-06T08:12:39.435Z,496.20
2023-06-06T08:13:39.400Z,486.20
2023-06-06T08:14:39.392Z,478.50
2023-06-06T08:15:39.374Z,480.80
2023-06-06T08:16:39.392Z,425.50
2023-06-06T08:17:39.488Z,469.00
2023-06-06T08:18:39.456Z,385.60
2023-06-06T08:19:39.326Z,423.30
2023-06-06T08:20:39.371Z,461.60
2023-06-06T08:21:39.350Z,361.80
2023-06-06T08:22:39.353Z,361.60
2023-06-06T08:23:39.336Z,372.00
2023-06-06T08:24:39.288Z,392.20
2023-06-06T08:25:39.317Z,445.00
2023-06-06T08:26:39.274Z,495.40
2023-06-06T08:27:39.260Z,485.40
2023-06-06T08:28:39.227Z,420.30
2023-06-06T08:29:39.225Z,452.10
2023-06-06T08:30:39.256Z,512.40
2023-06-06T08:31:39.277Z,432.70
2023-06-06T08:32:39.236Z,461.60
2023-06-06T08:33:39.194Z,426.10
2023-06-06T08:34:39.179Z,396.40
2023-06-06T08:35:39.226Z,348.10
2023-06-06T08:36:39.150Z,312.00
2023-06-06T08:37:39.138Z,218.40
2023-06-06T08:38:39.121Z,177.60
2023-06-06T08:39:39.128Z,222.50
2023-06-06T08:40:39.100Z,251.60
2023-06-06T08:41:39.078Z,267.00
2023-06-06T08:42:39.068Z,199.40
2023-06-06T08:43:39.067Z,165.70
2023-06-06T08:44:39.068Z,168.10
2023-06-06T08:45:39.029Z,135.70
2023-06-06T08:46:39.065Z,129.30
2023-06-06T08:47:39.043Z,115.30
2023-06-06T08:48:39.047Z,117.60
2023-06-06T08:49:39.030Z,122.60
2023-06-06T08:50:38.964Z,123.50
2023-06-06T08:51:38.969Z,125.70
2023-06-06T08:52:38.962Z,172.00
2023-06-06T08:53:38.953Z,142.30
2023-06-06T08:54:38.933Z,145.40
2023-06-06T08:55:38.924Z,89.90
2023-06-06T08:56:38.894Z,62.50
2023-06-06T08:57:38.864Z,57.40
2023-06-06T08:58:38.913Z,58.60
2023-06-06T08:59:38.905Z,69.30
2023-06-06T09:00:38.874Z,59.80
2023-06-06T09:01:38.887Z,61.20
2023-06-06T09:02:38.906Z,71.90
2023-06-06T09:03:38.883Z,70.00
2023-06-06T09:04:38.826Z,48.20
2023-06-06T09:05:38.837Z,47.30
2023-06-06T09:06:38.795Z,60.40
2023-06-06T09:07:38.832Z,70.40
2023-06-06T09:08:38.805Z,43.70
2023-06-06T09:09:38.753Z,40.60
2023-06-06T09:10:38.766Z,35.70
2023-06-06T09:11:38.732Z,38.50
2023-06-06T09:12:38.766Z,38.40
2023-06-06T09:13:38.729Z,38.30
2023-06-06T09:14:38.724Z,35.30
2023-06-06T09:15:38.696Z,44.40
2023-06-06T09:16:38.795Z,35.20
2023-06-06T09:17:38.738Z,36.10
2023-06-06T09:18:38.679Z,30.80
2023-06-06T09:19:38.679Z,32.30
2023-06-06T09:20:38.661Z,34.50
2023-06-06T09:21:38.649Z,33.30
2023-06-06T09:22:38.660Z,39.40
2023-06-06T09:23:38.629Z,34.00
2023-06-06T09:24:38.736Z,28.00
2023-06-06T09:25:38.620Z,25.10
2023-06-06T09:26:38.612Z,26.20
2023-06-06T09:27:38.603Z,34.70
2023-06-06T09:28:38.584Z,45.40
2023-06-06T09:29:38.541Z,34.60
2023-06-06T09:30:38.584Z,33.40
2023-06-06T09:31:38.743Z,33.00
2023-06-06T09:32:40.227Z,34.50
2023-06-06T09:33:38.550Z,33.50
2023-06-06T09:34:38.494Z,33.40
2023-06-06T09:35:38.463Z,34.30
2023-06-06T09:36:38.523Z,33.70
2023-06-06T09:37:38.520Z,39.10
2023-06-06T09:38:38.459Z,42.20
2023-06-06T09:39:38.442Z,39.60
2023-06-06T09:40:38.464Z,43.10
2023-06-06T09:41:38.433Z,34.10
2023-06-06T09:42:38.408Z,33.60
2023-06-06T09:43:38.421Z,39.50
2023-06-06T09:44:38.472Z,37.30
2023-06-06T09:45:38.553Z,33.50
2023-06-06T09:46:38.546Z,38.90
2023-06-06T09:47:38.405Z,43.30
2023-06-06T09:48:38.339Z,33.10
2023-06-06T09:49:38.602Z,37.90
2023-06-06T09:50:38.365Z,39.10
2023-06-06T09:51:38.302Z,29.60
2023-06-06T09:52:38.914Z,27.00
2023-06-06T09:53:38.393Z,26.40
2023-06-06T09:54:38.238Z,30.40
2023-06-06T09:55:38.278Z,25.30
2023-06-06T09:56:38.254Z,26.50
2023-06-06T09:57:38.258Z,24.20
2023-06-06T09:58:38.233Z,22.70
2023-06-06T09:59:38.296Z,24.20
2023-06-06T10:00:38.231Z,23.40
2023-06-06T10:01:38.278Z,26.30
2023-06-06T10:02:38.351Z,24.70
2023-06-06T10:03:38.317Z,27.50
2023-06-06T10:04:38.397Z,26.60
2023-06-06T10:05:38.191Z,26.70
2023-06-06T10:06:38.132Z,28.80
2023-06-06T10:07:38.107Z,26.50
2023-06-06T10:08:38.135Z,30.50
2023-06-06T10:09:38.217Z,28.70
2023-06-06T10:10:38.106Z,30.10
2023-06-06T10:11:38.113Z,29.90
2023-06-06T10:12:38.073Z,31.70
2023-06-06T10:13:38.121Z,37.10
2023-06-06T10:14:38.088Z,33.00
2023-06-06T10:15:38.032Z,31.20
2023-06-06T10:16:38.089Z,29.40
2023-06-06T10:17:38.141Z,31.20
2023-06-06T10:18:38.067Z,30.40
2023-06-06T10:19:37.999Z,29.90
2023-06-06T10:20:37.989Z,28.80
2023-06-06T10:21:38.799Z,28.20
2023-06-06T10:22:38.005Z,30.10
2023-06-06T10:23:38.171Z,31.20
2023-06-06T10:24:39.822Z,29.80
2023-06-06T10:25:37.939Z,29.40
2023-06-06T10:26:37.904Z,30.00
2023-06-06T10:27:38.070Z,31.80
2023-06-06T10:28:38.066Z,28.60
2023-06-06T10:29:37.926Z,27.40
2023-06-06T10:30:37.870Z,29.00
2023-06-06T10:31:37.920Z,28.70
2023-06-06T10:32:37.939Z,35.90
2023-06-06T10:33:37.840Z,41.80
2023-06-06T10:34:37.864Z,44.50
2023-06-06T10:35:37.822Z,51.10
2023-06-06T10:36:37.787Z,47.70
2023-06-06T10:37:37.846Z,45.90
2023-06-06T10:38:37.781Z,45.90
2023-06-06T10:39:37.792Z,49.10
2023-06-06T10:40:37.764Z,51.70
2023-06-06T10:41:37.749Z,45.10
2023-06-06T10:42:37.766Z,42.10
2023-06-06T10:43:37.726Z,50.50
2023-06-06T10:44:37.739Z,39.80
2023-06-06T10:45:37.706Z,44.60
2023-06-06T10:46:37.791Z,36.40
2023-06-06T10:47:37.739Z,44.10
2023-06-06T10:48:37.691Z,47.40
2023-06-06T10:49:37.640Z,50.30
2023-06-06T10:50:37.635Z,65.70
2023-06-06T10:51:37.721Z,77.10
2023-06-06T10:52:37.623Z,139.10
2023-06-06T10:53:37.633Z,121.50
2023-06-06T10:54:37.602Z,316.30
2023-06-06T10:55:37.763Z,272.70
2023-06-06T10:56:37.645Z,337.30
2023-06-06T10:57:37.606Z,385.80
2023-06-06T10:58:37.768Z,531.50
2023-06-06T10:59:37.580Z,469.00
2023-06-06T11:00:37.628Z,362.60
2023-06-06T11:01:37.625Z,441.70
2023-06-06T11:02:37.531Z,405.30
2023-06-06T11:03:37.618Z,465.80
2023-06-06T11:04:37.486Z,466.90
2023-06-06T11:05:37.511Z,498.10
2023-06-06T11:06:37.463Z,535.50
2023-06-06T11:07:37.471Z,588.50
2023-06-06T11:08:37.469Z,658.30
2023-06-06T11:09:37.461Z,633.20
2023-06-06T11:10:37.425Z,558.40
2023-06-06T11:11:37.437Z,549.20
2023-06-06T11:12:37.383Z,549.90
2023-06-06T11:13:37.390Z,493.80
2023-06-06T11:14:37.351Z,318.70
2023-06-06T11:15:37.404Z,393.70
2023-06-06T11:16:37.379Z,504.20
2023-06-06T11:17:37.355Z,512.30
2023-06-06T11:18:37.293Z,496.00
2023-06-06T11:19:37.330Z,532.20
2023-06-06T11:20:37.354Z,647.20
2023-06-06T11:21:37.274Z,652.70
2023-06-06T11:22:37.290Z,593.60
2023-06-06T11:23:37.295Z,548.00
2023-06-06T11:24:37.297Z,602.80
2023-06-06T11:25:37.269Z,540.80
2023-06-06T11:26:37.242Z,499.50
2023-06-06T11:27:37.321Z,491.80
2023-06-06T11:28:37.197Z,490.50
2023-06-06T11:29:37.259Z,528.50
2023-06-06T11:30:37.416Z,584.10
2023-06-06T11:31:37.258Z,588.70
2023-06-06T11:32:37.254Z,340.30
2023-06-06T11:33:37.218Z,337.90
2023-06-06T11:34:37.201Z,505.40
2023-06-06T11:35:37.199Z,504.90
2023-06-06T11:36:37.138Z,521.90
2023-06-06T11:37:37.121Z,436.90
2023-06-06T11:38:37.123Z,537.80
2023-06-06T11:39:37.106Z,431.90
2023-06-06T11:40:37.101Z,520.80
2023-06-06T11:41:37.057Z,406.40
2023-06-06T11:42:37.100Z,429.80
2023-06-06T11:43:37.097Z,375.50
2023-06-06T11:44:37.246Z,376.30
2023-06-06T11:45:37.976Z,387.40
2023-06-06T11:46:36.994Z,443.00
2023-06-06T11:47:37.119Z,349.40
2023-06-06T11:48:37.056Z,337.70
2023-06-06T11:49:36.954Z,222.80
2023-06-06T11:50:36.960Z,482.70
2023-06-06T11:51:36.949Z,342.50
2023-06-06T11:52:36.943Z,367.00
2023-06-06T11:53:36.924Z,430.00
2023-06-06T11:54:36.898Z,432.30
2023-06-06T11:55:36.905Z,412.70
2023-06-06T11:56:36.878Z,402.00
2023-06-06T11:57:36.913Z,290.30
2023-06-06T11:58:36.859Z,352.30
2023-06-06T11:59:36.911Z,392.10
2023-06-06T12:00:36.832Z,295.80
2023-06-06T12:01:36.872Z,329.50
2023-06-06T12:02:36.902Z,290.40
2023-06-06T12:03:36.945Z,329.10
2023-06-06T12:04:36.819Z,475.90
2023-06-06T12:05:36.805Z,408.60
2023-06-06T12:06:36.821Z,342.70
2023-06-06T12:07:36.753Z,358.50
2023-06-06T12:08:36.751Z,384.50
2023-06-06T12:09:36.746Z,331.00
2023-06-06T12:10:36.743Z,256.90
2023-06-06T12:11:36.798Z,320.80
2023-06-06T12:12:36.699Z,294.50
2023-06-06T12:13:36.709Z,254.90
2023-06-06T12:14:36.660Z,276.50
2023-06-06T12:15:36.700Z,343.90
2023-06-06T12:16:36.714Z,369.10
2023-06-06T12:17:36.764Z,355.20
2023-06-06T12:18:36.821Z,298.50
2023-06-06T12:19:36.605Z,385.20
2023-06-06T12:20:36.640Z,334.80
2023-06-06T12:21:36.611Z,311.40
2023-06-06T12:22:36.586Z,442.40
2023-06-06T12:23:36.677Z,272.80
2023-06-06T12:24:36.572Z,305.00
2023-06-06T12:25:36.592Z,356.00
2023-06-06T12:26:36.543Z,357.20
2023-06-06T12:27:36.541Z,288.50
2023-06-06T12:28:36.522Z,296.80
2023-06-06T12:29:36.522Z,308.70
2023-06-06T12:30:36.567Z,352.40
2023-06-06T12:31:36.514Z,279.90
2023-06-06T12:32:36.566Z,384.30
2023-06-06T12:33:36.462Z,262.60